St Thomas, Virgin Islands
Current Conditions -  °F | °C
As of 10:53 PM on Friday 24 Oct 2014 (Local Time) from TIST Reporting Station
Few Clouds Few Clouds  
Wind Chill: 81°   Ceiling: Unl
Heat Index: 87°   Visibility: 10mi
Dew Point: 75°   Wind: 8mph
Humidity: 82%   Direction: 110°ESE
Pressure: 29.93"   Gusts: NA
Location:  18.3436°N, 64.9322°W
Report Text: TIST 250253Z 11007KT 10SM FEW025 27/24 A2993 RMK AO2 SLP135 T02720239 51011
Loading
Personal Weather Stations






























Interactive Weather Map New forecast layout! Learn more

10-Day Weather Forecast

Advertisements
Track Severe Weather on mobile